createdAt,value
2018-11-06T00:00:48.431Z,974.49
2018-11-06T00:01:48.420Z,974.42
2018-11-06T00:02:48.408Z,974.46
2018-11-06T00:03:48.400Z,974.43
2018-11-06T00:04:48.402Z,974.49
2018-11-06T00:05:48.379Z,974.45
2018-11-06T00:06:48.363Z,974.38
2018-11-06T00:07:48.352Z,974.42
2018-11-06T00:08:48.360Z,974.44
2018-11-06T00:09:48.360Z,974.45
2018-11-06T00:10:48.318Z,974.46
2018-11-06T00:11:48.311Z,974.43
2018-11-06T00:12:48.299Z,974.40
2018-11-06T00:13:48.284Z,974.41
2018-11-06T00:14:48.288Z,974.41
2018-11-06T00:15:48.265Z,974.39
2018-11-06T00:16:48.249Z,974.29
2018-11-06T00:17:48.242Z,974.41
2018-11-06T00:18:48.230Z,974.41
2018-11-06T00:19:48.233Z,974.41
2018-11-06T00:20:48.227Z,974.32
2018-11-06T00:21:48.192Z,974.36
2018-11-06T00:22:48.182Z,974.37
2018-11-06T00:23:48.170Z,974.35
2018-11-06T00:24:48.171Z,974.37
2018-11-06T00:25:48.152Z,974.36
2018-11-06T00:26:48.147Z,974.36
2018-11-06T00:27:48.200Z,974.35
2018-11-06T00:28:48.114Z,974.38
2018-11-06T00:29:48.118Z,974.43
2018-11-06T00:30:48.091Z,974.41
2018-11-06T00:31:48.087Z,974.45
2018-11-06T00:32:48.075Z,974.40
2018-11-06T00:33:48.065Z,974.45
2018-11-06T00:34:48.061Z,974.45
2018-11-06T00:35:48.043Z,974.38
2018-11-06T00:36:48.027Z,974.40
2018-11-06T00:37:48.015Z,974.41
2018-11-06T00:38:48.008Z,974.39
2018-11-06T00:39:48.005Z,974.41
2018-11-06T00:40:47.982Z,974.44
2018-11-06T00:41:47.970Z,974.39
2018-11-06T00:42:47.966Z,974.38
2018-11-06T00:43:47.947Z,974.38
2018-11-06T00:44:47.949Z,974.41
2018-11-06T00:45:47.924Z,974.42
2018-11-06T00:46:47.918Z,974.41
2018-11-06T00:47:47.908Z,974.42
2018-11-06T00:48:47.898Z,974.42
2018-11-06T00:49:47.891Z,974.45
2018-11-06T00:50:47.868Z,974.44
2018-11-06T00:51:47.856Z,974.42
2018-11-06T00:52:47.845Z,974.40
2018-11-06T00:53:47.834Z,974.40
2018-11-06T00:54:47.846Z,974.42
2018-11-06T00:55:47.816Z,974.40
2018-11-06T00:56:47.804Z,974.41
2018-11-06T00:57:47.791Z,974.41
2018-11-06T00:58:47.777Z,974.37
2018-11-06T00:59:47.781Z,974.31
2018-11-06T01:00:47.754Z,974.32
2018-11-06T01:01:47.743Z,974.33
2018-11-06T01:02:47.732Z,974.37
2018-11-06T01:03:47.724Z,974.31
2018-11-06T01:04:47.721Z,974.24
2018-11-06T01:05:47.713Z,974.29
2018-11-06T01:06:47.704Z,974.24
2018-11-06T01:07:47.678Z,974.31
2018-11-06T01:08:47.671Z,974.26
2018-11-06T01:09:47.668Z,974.23
2018-11-06T01:10:47.649Z,974.24
2018-11-06T01:11:47.637Z,974.21
2018-11-06T01:12:47.621Z,974.25
2018-11-06T01:13:47.614Z,974.19
2018-11-06T01:14:47.611Z,974.21
2018-11-06T01:15:47.592Z,974.19
2018-11-06T01:16:47.576Z,974.18
2018-11-06T01:17:47.565Z,974.28
2018-11-06T01:18:47.553Z,974.26
2018-11-06T01:19:47.574Z,974.24
2018-11-06T01:20:47.535Z,974.28
2018-11-06T01:21:47.524Z,974.18
2018-11-06T01:22:47.512Z,974.24
2018-11-06T01:23:47.505Z,974.22
2018-11-06T01:24:47.527Z,974.26
2018-11-06T01:25:47.477Z,974.21
2018-11-06T01:26:47.470Z,974.14
2018-11-06T01:27:47.455Z,974.21
2018-11-06T01:28:47.444Z,974.20
2018-11-06T01:29:47.485Z,974.18
2018-11-06T01:30:47.438Z,974.25
2018-11-06T01:31:47.410Z,974.22
2018-11-06T01:32:47.407Z,974.21
2018-11-06T01:33:47.395Z,974.18
2018-11-06T01:34:47.379Z,974.19
2018-11-06T01:35:47.381Z,974.20
2018-11-06T01:36:47.357Z,974.18
2018-11-06T01:37:47.349Z,974.21
2018-11-06T01:38:47.338Z,974.19
2018-11-06T01:39:47.329Z,974.20
2018-11-06T01:40:47.323Z,974.15
2018-11-06T01:41:47.309Z,974.18
2018-11-06T01:42:47.298Z,974.15
2018-11-06T01:43:47.285Z,974.11
2018-11-06T01:44:47.275Z,974.10
2018-11-06T01:45:47.279Z,974.10
2018-11-06T01:46:47.251Z,974.13
2018-11-06T01:47:47.236Z,974.14
2018-11-06T01:48:47.232Z,974.14
2018-11-06T01:49:47.201Z,974.13
2018-11-06T01:50:47.214Z,974.04
2018-11-06T01:51:47.191Z,974.13
2018-11-06T01:52:47.180Z,974.16
2018-11-06T01:53:47.176Z,974.14
2018-11-06T01:54:47.163Z,974.12
2018-11-06T01:55:47.158Z,974.11
2018-11-06T01:56:47.134Z,974.17
2018-11-06T01:57:47.123Z,974.16
2018-11-06T01:58:47.111Z,974.17
2018-11-06T01:59:47.101Z,974.16
2018-11-06T02:00:47.105Z,974.16
2018-11-06T02:01:47.077Z,974.14
2018-11-06T02:02:47.072Z,974.18
2018-11-06T02:03:47.063Z,974.21
2018-11-06T02:04:47.049Z,974.19
2018-11-06T02:05:47.048Z,974.19
2018-11-06T02:06:47.029Z,974.11
2018-11-06T02:07:47.016Z,974.20
2018-11-06T02:08:47.006Z,974.18
2018-11-06T02:09:46.996Z,974.24
2018-11-06T02:10:46.991Z,974.20
2018-11-06T02:11:46.972Z,974.18
2018-11-06T02:12:46.962Z,974.13
2018-11-06T02:13:46.946Z,974.16
2018-11-06T02:14:46.938Z,974.14
2018-11-06T02:15:46.934Z,974.16
2018-11-06T02:16:46.917Z,974.16
2018-11-06T02:17:46.900Z,974.14
2018-11-06T02:18:46.888Z,974.12
2018-11-06T02:19:46.879Z,974.13
2018-11-06T02:20:46.879Z,974.13
2018-11-06T02:21:46.855Z,974.20
2018-11-06T02:22:46.843Z,974.19
2018-11-06T02:23:46.827Z,974.15
2018-11-06T02:24:46.824Z,974.11
2018-11-06T02:25:46.821Z,974.14
2018-11-06T02:26:46.799Z,974.06
2018-11-06T02:27:46.794Z,974.15
2018-11-06T02:28:46.783Z,974.10
2018-11-06T02:29:46.771Z,974.10
2018-11-06T02:30:46.773Z,974.14
2018-11-06T02:31:46.745Z,974.12
2018-11-06T02:32:46.746Z,974.16
2018-11-06T02:33:46.722Z,974.11
2018-11-06T02:34:46.715Z,974.13
2018-11-06T02:35:46.716Z,974.11
2018-11-06T02:36:46.689Z,974.12
2018-11-06T02:37:46.680Z,974.09
2018-11-06T02:38:46.669Z,974.17
2018-11-06T02:39:46.658Z,974.19
2018-11-06T02:40:46.655Z,974.22
2018-11-06T02:41:46.632Z,974.17
2018-11-06T02:42:46.630Z,974.23
2018-11-06T02:43:46.609Z,974.19
2018-11-06T02:44:46.599Z,974.24
2018-11-06T02:45:46.609Z,974.26
2018-11-06T02:46:46.584Z,974.29
2018-11-06T02:47:46.568Z,974.26
2018-11-06T02:48:46.561Z,974.27
2018-11-06T02:49:46.544Z,974.27
2018-11-06T02:50:46.544Z,974.34
2018-11-06T02:51:46.526Z,974.35
2018-11-06T02:52:46.520Z,974.31
2018-11-06T02:53:46.502Z,974.33
2018-11-06T02:54:46.487Z,974.33
2018-11-06T02:55:46.524Z,974.36
2018-11-06T02:56:46.475Z,974.32
2018-11-06T02:57:46.462Z,974.33
2018-11-06T02:58:46.446Z,974.40
2018-11-06T02:59:46.434Z,974.36
2018-11-06T03:00:46.436Z,974.30
2018-11-06T03:01:46.416Z,974.43
2018-11-06T03:02:46.405Z,974.37
2018-11-06T03:03:46.398Z,974.32
2018-11-06T03:04:46.380Z,974.37
2018-11-06T03:05:46.379Z,974.38
2018-11-06T03:06:46.359Z,974.34
2018-11-06T03:07:46.348Z,974.34
2018-11-06T03:08:46.337Z,974.33
2018-11-06T03:09:46.322Z,974.33
2018-11-06T03:10:46.326Z,974.33
2018-11-06T03:11:46.303Z,974.32
2018-11-06T03:12:46.296Z,974.36
2018-11-06T03:13:46.284Z,974.29
2018-11-06T03:14:46.273Z,974.31
2018-11-06T03:15:46.269Z,974.33
2018-11-06T03:16:46.352Z,974.35
2018-11-06T03:17:46.239Z,974.30
2018-11-06T03:18:46.239Z,974.29
2018-11-06T03:19:46.212Z,974.31
2018-11-06T03:20:46.212Z,974.28
2018-11-06T03:21:46.193Z,974.29
2018-11-06T03:22:46.182Z,974.29
2018-11-06T03:23:46.170Z,974.27
2018-11-06T03:24:46.159Z,974.32
2018-11-06T03:25:46.159Z,974.27
2018-11-06T03:26:46.151Z,974.23
2018-11-06T03:27:46.120Z,974.25
2018-11-06T03:28:46.116Z,974.22
2018-11-06T03:29:46.102Z,974.25
2018-11-06T03:30:46.139Z,974.24
2018-11-06T03:31:46.076Z,974.25
2018-11-06T03:32:46.070Z,974.25
2018-11-06T03:33:46.053Z,974.28
2018-11-06T03:34:46.041Z,974.24
2018-11-06T03:35:46.030Z,974.25
2018-11-06T03:36:46.031Z,974.22
2018-11-06T03:37:46.013Z,974.27
2018-11-06T03:38:45.996Z,974.32
2018-11-06T03:39:45.989Z,974.23
2018-11-06T03:40:45.973Z,974.27
2018-11-06T03:41:45.974Z,974.31
2018-11-06T03:42:45.956Z,974.36
2018-11-06T03:43:45.944Z,974.39
2018-11-06T03:44:45.936Z,974.35
2018-11-06T03:45:45.921Z,974.41
2018-11-06T03:46:45.918Z,974.38
2018-11-06T03:47:45.901Z,974.31
2018-11-06T03:48:45.890Z,974.39
2018-11-06T03:49:45.879Z,974.33
2018-11-06T03:50:45.869Z,974.39
2018-11-06T03:51:45.865Z,974.38
2018-11-06T03:52:45.854Z,974.33
2018-11-06T03:53:45.834Z,974.36
2018-11-06T03:54:45.820Z,974.35
2018-11-06T03:55:45.812Z,974.34
2018-11-06T03:56:45.807Z,974.35
2018-11-06T03:57:45.789Z,974.36
2018-11-06T03:58:45.773Z,974.34
2018-11-06T03:59:45.762Z,974.35
2018-11-06T04:00:45.752Z,974.40
2018-11-06T04:01:45.755Z,974.35
2018-11-06T04:02:45.735Z,974.36
2018-11-06T04:03:45.724Z,974.35
2018-11-06T04:04:45.728Z,974.32
2018-11-06T04:05:45.698Z,974.40
2018-11-06T04:06:45.702Z,974.36
2018-11-06T04:07:45.682Z,974.36
2018-11-06T04:08:45.668Z,974.34
2018-11-06T04:09:45.651Z,974.40
2018-11-06T04:10:45.644Z,974.37
2018-11-06T04:11:45.641Z,974.37
2018-11-06T04:12:45.632Z,974.34
2018-11-06T04:13:45.608Z,974.38
2018-11-06T04:14:45.598Z,974.38
2018-11-06T04:15:45.585Z,974.47
2018-11-06T04:16:45.589Z,974.42
2018-11-06T04:17:45.565Z,974.47
2018-11-06T04:18:45.550Z,974.45
2018-11-06T04:19:45.542Z,974.50
2018-11-06T04:20:45.531Z,974.45
2018-11-06T04:21:45.529Z,974.50
2018-11-06T04:22:45.514Z,974.48
2018-11-06T04:23:45.501Z,974.46
2018-11-06T04:24:45.490Z,974.50
2018-11-06T04:25:45.480Z,974.46
2018-11-06T04:26:45.475Z,974.49
2018-11-06T04:27:45.453Z,974.42
2018-11-06T04:28:45.441Z,974.43
2018-11-06T04:29:45.434Z,974.48
2018-11-06T04:30:45.418Z,974.48
2018-11-06T04:31:45.423Z,974.48
2018-11-06T04:32:45.399Z,974.48
2018-11-06T04:33:45.388Z,974.49
2018-11-06T04:34:45.372Z,974.52
2018-11-06T04:35:45.371Z,974.47
2018-11-06T04:36:45.363Z,974.52
2018-11-06T04:37:45.347Z,974.47
2018-11-06T04:38:45.331Z,974.48
2018-11-06T04:39:45.329Z,974.52
2018-11-06T04:40:45.316Z,974.48
2018-11-06T04:41:45.312Z,974.46
2018-11-06T04:42:45.290Z,974.47
2018-11-06T04:43:45.275Z,974.49
2018-11-06T04:44:45.267Z,974.49
2018-11-06T04:45:45.256Z,974.52
2018-11-06T04:46:45.260Z,974.48
2018-11-06T04:47:45.229Z,974.48
2018-11-06T04:48:45.217Z,974.52
2018-11-06T04:49:45.210Z,974.48
2018-11-06T04:50:45.199Z,974.47
2018-11-06T04:51:45.204Z,974.54
2018-11-06T04:52:45.177Z,974.51
2018-11-06T04:53:45.168Z,974.49
2018-11-06T04:54:45.153Z,974.53
2018-11-06T04:55:45.146Z,974.53
2018-11-06T04:56:45.150Z,974.53
2018-11-06T04:57:45.123Z,974.57
2018-11-06T04:58:45.109Z,974.56
2018-11-06T04:59:45.100Z,974.56
2018-11-06T05:00:45.090Z,974.56
2018-11-06T05:01:45.096Z,974.55
2018-11-06T05:02:45.063Z,974.56
2018-11-06T05:03:45.055Z,974.54
2018-11-06T05:04:45.044Z,974.55
2018-11-06T05:05:45.033Z,974.59
2018-11-06T05:06:45.088Z,974.60
2018-11-06T05:07:45.006Z,974.58
2018-11-06T05:08:44.999Z,974.60
2018-11-06T05:09:45.000Z,974.63
2018-11-06T05:10:44.983Z,974.67
2018-11-06T05:11:44.983Z,974.63
2018-11-06T05:12:44.957Z,974.61
2018-11-06T05:13:44.999Z,974.70
2018-11-06T05:14:44.936Z,974.68
2018-11-06T05:15:44.923Z,974.61
2018-11-06T05:16:44.928Z,974.63
2018-11-06T05:17:44.896Z,974.71
2018-11-06T05:18:44.889Z,974.69
2018-11-06T05:19:44.877Z,974.66
2018-11-06T05:20:44.866Z,974.71
2018-11-06T05:21:44.886Z,974.70
2018-11-06T05:22:44.844Z,974.68
2018-11-06T05:23:44.824Z,974.73
2018-11-06T05:24:44.818Z,974.68
2018-11-06T05:25:44.809Z,974.72
2018-11-06T05:26:44.815Z,974.75
2018-11-06T05:27:44.782Z,974.75
2018-11-06T05:28:44.776Z,974.73
2018-11-06T05:29:44.763Z,974.71
2018-11-06T05:30:44.748Z,974.76
2018-11-06T05:31:44.749Z,974.77
2018-11-06T05:32:44.807Z,974.74
2018-11-06T05:33:44.714Z,974.77
2018-11-06T05:34:44.770Z,974.84
2018-11-06T05:35:44.696Z,974.82
2018-11-06T05:36:44.716Z,974.81
2018-11-06T05:37:44.679Z,974.85
2018-11-06T05:38:44.710Z,974.89
2018-11-06T05:39:44.658Z,974.91
2018-11-06T05:40:44.639Z,974.85
2018-11-06T05:41:44.627Z,974.87
2018-11-06T05:42:44.624Z,974.90
2018-11-06T05:43:44.608Z,974.82
2018-11-06T05:44:44.592Z,974.86
2018-11-06T05:45:44.806Z,974.90
2018-11-06T05:46:44.574Z,974.86
2018-11-06T05:47:44.571Z,974.92
2018-11-06T05:48:44.547Z,974.91
2018-11-06T05:49:44.541Z,974.90
2018-11-06T05:50:44.529Z,974.93
2018-11-06T05:51:44.521Z,974.96
2018-11-06T05:52:44.554Z,974.90
2018-11-06T05:53:44.504Z,974.92
2018-11-06T05:54:44.483Z,974.99
2018-11-06T05:55:44.476Z,974.90
2018-11-06T05:56:44.460Z,974.96
2018-11-06T05:57:44.470Z,975.00
2018-11-06T05:58:44.438Z,974.98
2018-11-06T05:59:44.431Z,974.94
2018-11-06T06:00:44.416Z,974.98
2018-11-06T06:01:44.402Z,975.01
2018-11-06T06:02:44.404Z,974.98
2018-11-06T06:03:44.377Z,974.96
2018-11-06T06:04:44.369Z,974.97
2018-11-06T06:05:44.358Z,975.02
2018-11-06T06:06:44.344Z,975.02
2018-11-06T06:07:44.355Z,975.06
2018-11-06T06:08:44.320Z,975.10
2018-11-06T06:09:44.312Z,975.14
2018-11-06T06:10:44.306Z,975.15
2018-11-06T06:11:44.294Z,975.13
2018-11-06T06:12:44.291Z,975.17
2018-11-06T06:13:44.267Z,975.15
2018-11-06T06:14:44.262Z,975.18
2018-11-06T06:15:44.249Z,975.17
2018-11-06T06:16:44.283Z,975.17
2018-11-06T06:17:44.230Z,975.16
2018-11-06T06:18:44.215Z,975.24
2018-11-06T06:19:44.200Z,975.17
2018-11-06T06:20:44.188Z,975.20
2018-11-06T06:21:44.180Z,975.22
2018-11-06T06:22:44.182Z,975.20
2018-11-06T06:23:44.154Z,975.18
2018-11-06T06:24:44.143Z,975.20
2018-11-06T06:25:44.136Z,975.26
2018-11-06T06:26:44.121Z,975.25
2018-11-06T06:27:44.120Z,975.28
2018-11-06T06:28:44.110Z,975.27
2018-11-06T06:29:44.090Z,975.24
2018-11-06T06:30:44.078Z,975.30
2018-11-06T06:31:44.069Z,975.26
2018-11-06T06:32:44.073Z,975.28
2018-11-06T06:33:44.049Z,975.30
2018-11-06T06:34:44.071Z,975.32
2018-11-06T06:35:44.025Z,975.35
2018-11-06T06:36:44.011Z,975.33
2018-11-06T06:37:44.007Z,975.35
2018-11-06T06:38:44.101Z,975.33
2018-11-06T06:39:43.972Z,975.30
2018-11-06T06:40:44.015Z,975.29
2018-11-06T06:41:43.950Z,975.32
2018-11-06T06:42:43.950Z,975.37
2018-11-06T06:43:43.930Z,975.35
2018-11-06T06:44:43.920Z,975.38
2018-11-06T06:45:43.904Z,975.40
2018-11-06T06:46:43.897Z,975.30
2018-11-06T06:47:43.893Z,975.38
2018-11-06T06:48:43.874Z,975.42
2018-11-06T06:49:43.862Z,975.39
2018-11-06T06:50:43.847Z,975.36
2018-11-06T06:51:43.839Z,975.38
2018-11-06T06:52:43.840Z,975.38
2018-11-06T06:53:43.819Z,975.41
2018-11-06T06:54:43.907Z,975.39
2018-11-06T06:55:43.794Z,975.40
2018-11-06T06:56:43.787Z,975.43
2018-11-06T06:57:43.783Z,975.43
2018-11-06T06:58:43.768Z,975.50
2018-11-06T06:59:43.753Z,975.50
2018-11-06T07:00:43.737Z,975.49
2018-11-06T07:01:43.726Z,975.49
2018-11-06T07:02:43.724Z,975.47
2018-11-06T07:03:43.703Z,975.52
2018-11-06T07:04:43.698Z,975.55
2018-11-06T07:05:43.684Z,975.51
2018-11-06T07:06:43.669Z,975.47
2018-11-06T07:07:43.671Z,975.51
2018-11-06T07:08:43.646Z,975.54
2018-11-06T07:09:43.639Z,975.56
2018-11-06T07:10:43.632Z,975.53
2018-11-06T07:11:43.612Z,975.53
2018-11-06T07:12:43.628Z,975.60
2018-11-06T07:13:43.593Z,975.63
2018-11-06T07:14:43.586Z,975.63
2018-11-06T07:15:43.571Z,975.60
2018-11-06T07:16:43.559Z,975.61
2018-11-06T07:17:43.556Z,975.63
2018-11-06T07:18:43.644Z,975.64
2018-11-06T07:19:43.529Z,975.66
2018-11-06T07:20:43.510Z,975.63
2018-11-06T07:21:43.499Z,975.61
2018-11-06T07:22:43.499Z,975.62
2018-11-06T07:23:43.483Z,975.63
2018-11-06T07:24:43.467Z,975.58
2018-11-06T07:25:43.454Z,975.60
2018-11-06T07:26:43.446Z,975.56
2018-11-06T07:27:43.447Z,975.62
2018-11-06T07:28:43.484Z,975.56
2018-11-06T07:29:43.412Z,975.54
2018-11-06T07:30:43.396Z,975.50
2018-11-06T07:31:43.393Z,975.46
2018-11-06T07:32:43.391Z,975.47
2018-11-06T07:33:43.372Z,975.44
2018-11-06T07:34:43.485Z,975.46
2018-11-06T07:35:43.524Z,975.44
2018-11-06T07:36:43.358Z,975.40
2018-11-06T07:37:43.333Z,975.42
2018-11-06T07:38:43.313Z,975.40
2018-11-06T07:39:43.298Z,975.42
2018-11-06T07:40:43.330Z,975.42
2018-11-06T07:41:43.279Z,975.37
2018-11-06T07:42:43.300Z,975.42
2018-11-06T07:43:43.257Z,975.36
2018-11-06T07:44:43.245Z,975.40
2018-11-06T07:45:43.226Z,975.35
2018-11-06T07:46:43.222Z,975.33
2018-11-06T07:47:43.211Z,975.41
2018-11-06T07:48:43.303Z,975.42
2018-11-06T07:49:43.226Z,975.40
2018-11-06T07:50:43.177Z,975.41
2018-11-06T07:51:43.162Z,975.39
2018-11-06T07:52:43.155Z,975.39
2018-11-06T07:53:43.152Z,975.38
2018-11-06T07:54:43.133Z,975.39
2018-11-06T07:55:43.171Z,975.45
2018-11-06T07:56:43.109Z,975.38
2018-11-06T07:57:43.093Z,975.39
2018-11-06T07:58:43.107Z,975.42
2018-11-06T07:59:43.070Z,975.36
2018-11-06T08:00:43.063Z,975.42
2018-11-06T08:01:43.054Z,975.36
2018-11-06T08:02:43.037Z,975.40
2018-11-06T08:03:43.041Z,975.39
2018-11-06T08:04:43.020Z,975.36
2018-11-06T08:05:43.003Z,975.36
2018-11-06T08:06:42.992Z,975.40
2018-11-06T08:07:42.980Z,975.40
2018-11-06T08:08:42.984Z,975.41
2018-11-06T08:09:42.963Z,975.40
2018-11-06T08:10:42.946Z,975.46
2018-11-06T08:11:42.939Z,975.51
2018-11-06T08:12:42.934Z,975.45
2018-11-06T08:13:42.933Z,975.61
2018-11-06T08:14:43.012Z,975.51
2018-11-06T08:15:42.894Z,975.49
2018-11-06T08:16:42.883Z,975.54
2018-11-06T08:17:42.870Z,975.49
2018-11-06T08:18:42.871Z,975.49
2018-11-06T08:19:42.852Z,975.47
2018-11-06T08:20:42.908Z,975.51
2018-11-06T08:21:42.825Z,975.46
2018-11-06T08:22:42.818Z,975.46
2018-11-06T08:23:42.898Z,975.47
2018-11-06T08:24:42.795Z,975.42
2018-11-06T08:25:42.786Z,975.39
2018-11-06T08:26:42.769Z,975.45
2018-11-06T08:27:42.821Z,975.50
2018-11-06T08:28:42.752Z,975.43
2018-11-06T08:29:42.734Z,975.48
2018-11-06T08:30:42.859Z,975.50
2018-11-06T08:31:43.071Z,975.49
2018-11-06T08:32:43.022Z,975.51
2018-11-06T08:33:42.714Z,975.49
2018-11-06T08:34:42.682Z,975.51
2018-11-06T08:35:42.673Z,975.46
2018-11-06T08:36:42.741Z,975.47
2018-11-06T08:37:42.649Z,975.51
2018-11-06T08:38:42.773Z,975.46
2018-11-06T08:39:42.627Z,975.43
2018-11-06T08:40:42.621Z,975.45
2018-11-06T08:41:42.606Z,975.50
2018-11-06T08:42:42.595Z,975.42
2018-11-06T08:43:42.599Z,975.50
2018-11-06T08:44:42.572Z,975.44
2018-11-06T08:45:42.562Z,975.43
2018-11-06T08:46:42.550Z,975.49
2018-11-06T08:47:42.530Z,975.42
2018-11-06T08:48:42.532Z,975.42
2018-11-06T08:49:42.517Z,975.37
2018-11-06T08:50:42.496Z,975.41
2018-11-06T08:51:42.488Z,975.43
2018-11-06T08:52:42.477Z,975.40
2018-11-06T08:53:42.474Z,975.41
2018-11-06T08:54:42.530Z,975.40
2018-11-06T08:55:42.439Z,975.35
2018-11-06T08:56:42.428Z,975.40
2018-11-06T08:57:42.418Z,975.31
2018-11-06T08:58:42.433Z,975.37
2018-11-06T08:59:42.393Z,975.31
2018-11-06T09:00:42.391Z,975.40
2018-11-06T09:01:42.376Z,975.35
2018-11-06T09:02:42.447Z,975.32
2018-11-06T09:03:42.364Z,975.32
2018-11-06T09:04:42.338Z,975.39
2018-11-06T09:05:42.329Z,975.35
2018-11-06T09:06:42.318Z,975.36
2018-11-06T09:07:42.311Z,975.38
2018-11-06T09:08:42.321Z,975.34
2018-11-06T09:09:42.291Z,975.36
2018-11-06T09:10:42.277Z,975.36
2018-11-06T09:11:42.265Z,975.34
2018-11-06T09:12:42.249Z,975.28
2018-11-06T09:13:42.250Z,975.31
2018-11-06T09:14:42.228Z,975.33
2018-11-06T09:15:42.220Z,975.40
2018-11-06T09:16:42.209Z,975.36
2018-11-06T09:17:42.199Z,975.39
2018-11-06T09:18:42.199Z,975.41
2018-11-06T09:19:42.173Z,975.37
2018-11-06T09:20:42.159Z,975.40
2018-11-06T09:21:42.156Z,975.40
2018-11-06T09:22:42.143Z,975.39
2018-11-06T09:23:42.137Z,975.41
2018-11-06T09:24:42.121Z,975.41
2018-11-06T09:25:42.107Z,975.36
2018-11-06T09:26:42.091Z,975.43
2018-11-06T09:27:42.080Z,975.44
2018-11-06T09:28:42.087Z,975.41
2018-11-06T09:29:42.057Z,975.39
2018-11-06T09:30:42.052Z,975.37
2018-11-06T09:31:42.040Z,975.36
2018-11-06T09:32:42.033Z,975.32
2018-11-06T09:33:42.028Z,975.31
2018-11-06T09:34:42.004Z,975.35
2018-11-06T09:35:41.993Z,975.30
2018-11-06T09:36:41.979Z,975.24
2018-11-06T09:37:41.971Z,975.22
2018-11-06T09:38:41.968Z,975.20
2018-11-06T09:39:41.968Z,975.17
2018-11-06T09:40:41.939Z,975.23
2018-11-06T09:41:41.930Z,975.26
2018-11-06T09:42:41.914Z,975.19
2018-11-06T09:43:41.920Z,975.23
2018-11-06T09:44:41.899Z,975.22
2018-11-06T09:45:41.881Z,975.18
2018-11-06T09:46:41.869Z,975.14
2018-11-06T09:47:41.863Z,975.18
2018-11-06T09:48:41.850Z,975.15
2018-11-06T09:49:41.850Z,975.06
2018-11-06T09:50:41.828Z,975.13
2018-11-06T09:51:41.811Z,975.08
2018-11-06T09:52:41.805Z,975.08
2018-11-06T09:53:41.789Z,975.08
2018-11-06T09:54:41.790Z,975.10
2018-11-06T09:55:41.771Z,975.10
2018-11-06T09:56:41.763Z,975.13
2018-11-06T09:57:41.751Z,975.07
2018-11-06T09:58:41.736Z,975.07
2018-11-06T09:59:41.738Z,975.09
2018-11-06T10:00:41.714Z,975.08
2018-11-06T10:01:41.707Z,975.11
2018-11-06T10:02:41.740Z,975.07
2018-11-06T10:03:41.692Z,975.04
2018-11-06T10:04:41.689Z,975.03
2018-11-06T10:05:41.665Z,975.05
2018-11-06T10:06:41.803Z,975.01
2018-11-06T10:07:41.669Z,975.02
2018-11-06T10:08:41.628Z,974.96
2018-11-06T10:09:41.629Z,974.97
2018-11-06T10:10:41.608Z,974.91
2018-11-06T10:11:41.593Z,974.91
2018-11-06T10:12:41.590Z,975.02
2018-11-06T10:13:41.587Z,974.94
2018-11-06T10:14:41.571Z,974.90
2018-11-06T10:15:41.588Z,974.93
2018-11-06T10:16:41.545Z,974.91
2018-11-06T10:17:41.529Z,974.90
2018-11-06T10:18:41.523Z,974.93
2018-11-06T10:19:41.523Z,974.92
2018-11-06T10:20:41.495Z,974.95
2018-11-06T10:21:41.485Z,974.90
2018-11-06T10:22:41.477Z,974.90
2018-11-06T10:23:41.465Z,974.86
2018-11-06T10:24:41.470Z,974.83
2018-11-06T10:25:41.438Z,974.83
2018-11-06T10:26:41.430Z,974.89
2018-11-06T10:27:41.420Z,974.83
2018-11-06T10:28:41.412Z,974.78
2018-11-06T10:29:41.449Z,974.80
2018-11-06T10:30:41.440Z,974.77
2018-11-06T10:31:41.379Z,974.78
2018-11-06T10:32:41.363Z,974.83
2018-11-06T10:33:41.356Z,974.79
2018-11-06T10:34:41.353Z,974.79
2018-11-06T10:35:41.333Z,974.78
2018-11-06T10:36:41.370Z,974.82
2018-11-06T10:37:41.311Z,974.73
2018-11-06T10:38:41.305Z,974.78
2018-11-06T10:39:41.305Z,974.74
2018-11-06T10:40:41.278Z,974.71
2018-11-06T10:41:41.270Z,974.71
2018-11-06T10:42:41.258Z,974.74
2018-11-06T10:43:41.249Z,974.70
2018-11-06T10:44:41.248Z,974.65
2018-11-06T10:45:41.220Z,974.69
2018-11-06T10:46:41.214Z,974.67
2018-11-06T10:47:41.200Z,974.62
2018-11-06T10:48:41.190Z,974.60
2018-11-06T10:49:41.203Z,974.58
2018-11-06T10:50:41.172Z,974.55
2018-11-06T10:51:41.167Z,974.52
2018-11-06T10:52:41.145Z,974.52
2018-11-06T10:53:41.130Z,974.51
2018-11-06T10:54:41.138Z,974.47
2018-11-06T10:55:41.111Z,974.42
2018-11-06T10:56:41.098Z,974.42
2018-11-06T10:57:41.086Z,974.32
2018-11-06T10:58:41.077Z,974.37
2018-11-06T10:59:41.078Z,974.28
